sensor_id;sensor_type;location;lat;lon;timestamp;P1;durP1;ratioP1;P2;durP2;ratioP2
41927;SDS011;27616;51.420;6.788;2023-04-29T00:01:04;39.10;;;15.40;;
41927;SDS011;27616;51.420;6.788;2023-04-29T00:03:30;33.50;;;15.10;;
41927;SDS011;27616;51.420;6.788;2023-04-29T00:05:59;32.87;;;14.43;;
41927;SDS011;27616;51.420;6.788;2023-04-29T00:08:25;34.78;;;15.15;;
41927;SDS011;27616;51.420;6.788;2023-04-29T00:10:52;37.53;;;15.77;;
41927;SDS011;27616;51.420;6.788;2023-04-29T00:13:18;36.27;;;14.90;;
41927;SDS011;27616;51.420;6.788;2023-04-29T00:15:44;37.27;;;15.63;;
41927;SDS011;27616;51.420;6.788;2023-04-29T00:18:09;43.80;;;16.13;;
41927;SDS011;27616;51.420;6.788;2023-04-29T00:20:35;38.00;;;15.10;;
41927;SDS011;27616;51.420;6.788;2023-04-29T00:23:03;43.97;;;17.10;;
41927;SDS011;27616;51.420;6.788;2023-04-29T00:25:28;42.80;;;17.10;;
41927;SDS011;27616;51.420;6.788;2023-04-29T00:27:54;44.40;;;17.17;;
41927;SDS011;27616;51.420;6.788;2023-04-29T00:30:20;37.27;;;15.97;;
41927;SDS011;27616;51.420;6.788;2023-04-29T00:32:46;38.53;;;15.43;;
41927;SDS011;27616;51.420;6.788;2023-04-29T00:35:12;41.37;;;16.33;;
41927;SDS011;27616;51.420;6.788;2023-04-29T00:37:37;41.47;;;16.60;;
41927;SDS011;27616;51.420;6.788;2023-04-29T00:40:04;49.67;;;18.03;;
41927;SDS011;27616;51.420;6.788;2023-04-29T00:42:30;45.90;;;17.77;;
41927;SDS011;27616;51.420;6.788;2023-04-29T00:44:59;51.15;;;18.38;;
41927;SDS011;27616;51.420;6.788;2023-04-29T00:47:24;46.83;;;17.93;;
41927;SDS011;27616;51.420;6.788;2023-04-29T00:49:50;47.30;;;18.23;;
41927;SDS011;27616;51.420;6.788;2023-04-29T00:52:16;52.00;;;18.67;;
41927;SDS011;27616;51.420;6.788;2023-04-29T00:54:43;55.50;;;20.10;;
41927;SDS011;27616;51.420;6.788;2023-04-29T00:57:09;59.13;;;21.37;;
41927;SDS011;27616;51.420;6.788;2023-04-29T00:59:34;54.33;;;21.20;;
41927;SDS011;27616;51.420;6.788;2023-04-29T01:02:02;58.83;;;19.83;;
41927;SDS011;27616;51.420;6.788;2023-04-29T01:04:31;55.87;;;20.00;;
41927;SDS011;27616;51.420;6.788;2023-04-29T01:09:43;62.20;;;19.67;;
41927;SDS011;27616;51.420;6.788;2023-04-29T01:15:25;55.27;;;18.07;;
41927;SDS011;27616;51.420;6.788;2023-04-29T01:20:40;60.00;;;20.63;;
41927;SDS011;27616;51.420;6.788;2023-04-29T01:23:08;58.80;;;19.90;;
41927;SDS011;27616;51.420;6.788;2023-04-29T01:25:36;57.20;;;19.50;;
41927;SDS011;27616;51.420;6.788;2023-04-29T01:28:34;68.67;;;21.37;;
41927;SDS011;27616;51.420;6.788;2023-04-29T01:31:24;63.17;;;20.57;;
41927;SDS011;27616;51.420;6.788;2023-04-29T01:34:13;58.00;;;19.13;;
41927;SDS011;27616;51.420;6.788;2023-04-29T01:44:44;58.10;;;20.13;;
41927;SDS011;27616;51.420;6.788;2023-04-29T01:47:13;52.88;;;18.70;;
41927;SDS011;27616;51.420;6.788;2023-04-29T01:49:44;59.03;;;20.20;;
41927;SDS011;27616;51.420;6.788;2023-04-29T01:52:11;59.07;;;19.80;;
41927;SDS011;27616;51.420;6.788;2023-04-29T01:54:38;57.03;;;18.87;;
41927;SDS011;27616;51.420;6.788;2023-04-29T01:57:04;65.07;;;19.53;;
41927;SDS011;27616;51.420;6.788;2023-04-29T01:59:48;62.30;;;20.97;;
41927;SDS011;27616;51.420;6.788;2023-04-29T02:02:36;62.00;;;20.40;;
41927;SDS011;27616;51.420;6.788;2023-04-29T02:05:22;63.47;;;20.37;;
41927;SDS011;27616;51.420;6.788;2023-04-29T02:07:53;63.60;;;20.57;;
41927;SDS011;27616;51.420;6.788;2023-04-29T02:10:19;64.03;;;20.57;;
41927;SDS011;27616;51.420;6.788;2023-04-29T02:12:47;61.40;;;20.90;;
41927;SDS011;27616;51.420;6.788;2023-04-29T02:15:14;62.17;;;19.83;;
41927;SDS011;27616;51.420;6.788;2023-04-29T02:17:40;64.97;;;20.20;;
41927;SDS011;27616;51.420;6.788;2023-04-29T02:20:06;50.00;;;17.03;;
41927;SDS011;27616;51.420;6.788;2023-04-29T02:22:32;51.03;;;16.80;;
41927;SDS011;27616;51.420;6.788;2023-04-29T02:24:58;49.60;;;16.83;;
41927;SDS011;27616;51.420;6.788;2023-04-29T02:27:24;47.33;;;18.03;;
41927;SDS011;27616;51.420;6.788;2023-04-29T02:29:50;51.67;;;16.53;;
41927;SDS011;27616;51.420;6.788;2023-04-29T02:32:16;45.90;;;16.27;;
41927;SDS011;27616;51.420;6.788;2023-04-29T02:34:44;47.97;;;17.20;;
41927;SDS011;27616;51.420;6.788;2023-04-29T02:37:10;45.57;;;16.23;;
41927;SDS011;27616;51.420;6.788;2023-04-29T02:39:36;44.90;;;15.20;;
41927;SDS011;27616;51.420;6.788;2023-04-29T02:42:01;39.90;;;14.67;;
41927;SDS011;27616;51.420;6.788;2023-04-29T02:44:27;41.40;;;15.47;;
41927;SDS011;27616;51.420;6.788;2023-04-29T02:46:55;40.43;;;14.60;;
41927;SDS011;27616;51.420;6.788;2023-04-29T02:49:22;42.83;;;14.17;;
41927;SDS011;27616;51.420;6.788;2023-04-29T02:51:48;39.57;;;14.47;;
41927;SDS011;27616;51.420;6.788;2023-04-29T02:54:14;38.23;;;13.80;;
41927;SDS011;27616;51.420;6.788;2023-04-29T02:56:41;36.97;;;13.83;;
41927;SDS011;27616;51.420;6.788;2023-04-29T02:59:07;30.20;;;11.60;;
41927;SDS011;27616;51.420;6.788;2023-04-29T03:01:34;35.47;;;13.17;;
41927;SDS011;27616;51.420;6.788;2023-04-29T03:04:00;33.87;;;12.63;;
41927;SDS011;27616;51.420;6.788;2023-04-29T03:06:25;37.27;;;13.07;;
41927;SDS011;27616;51.420;6.788;2023-04-29T03:08:52;31.77;;;12.83;;
41927;SDS011;27616;51.420;6.788;2023-04-29T03:11:18;30.63;;;12.50;;
41927;SDS011;27616;51.420;6.788;2023-04-29T03:13:44;33.53;;;11.33;;
41927;SDS011;27616;51.420;6.788;2023-04-29T03:16:10;32.83;;;12.50;;
41927;SDS011;27616;51.420;6.788;2023-04-29T03:18:41;28.77;;;11.13;;
41927;SDS011;27616;51.420;6.788;2023-04-29T03:21:07;33.87;;;11.83;;
41927;SDS011;27616;51.420;6.788;2023-04-29T03:23:33;32.67;;;12.17;;
41927;SDS011;27616;51.420;6.788;2023-04-29T03:26:01;33.87;;;12.67;;
41927;SDS011;27616;51.420;6.788;2023-04-29T03:28:27;35.40;;;11.93;;
41927;SDS011;27616;51.420;6.788;2023-04-29T03:30:52;33.13;;;11.53;;
41927;SDS011;27616;51.420;6.788;2023-04-29T03:33:18;37.47;;;13.70;;
41927;SDS011;27616;51.420;6.788;2023-04-29T03:35:44;32.20;;;11.87;;
41927;SDS011;27616;51.420;6.788;2023-04-29T03:38:19;29.83;;;11.83;;
41927;SDS011;27616;51.420;6.788;2023-04-29T03:40:46;32.50;;;11.87;;
41927;SDS011;27616;51.420;6.788;2023-04-29T03:43:14;33.83;;;13.03;;
41927;SDS011;27616;51.420;6.788;2023-04-29T03:45:40;31.40;;;12.70;;
41927;SDS011;27616;51.420;6.788;2023-04-29T03:48:06;29.80;;;11.30;;
41927;SDS011;27616;51.420;6.788;2023-04-29T03:50:33;27.80;;;11.30;;
41927;SDS011;27616;51.420;6.788;2023-04-29T03:52:59;28.00;;;11.03;;
41927;SDS011;27616;51.420;6.788;2023-04-29T03:55:25;28.07;;;11.13;;
41927;SDS011;27616;51.420;6.788;2023-04-29T03:57:51;30.33;;;12.23;;
41927;SDS011;27616;51.420;6.788;2023-04-29T04:00:18;32.03;;;12.03;;
41927;SDS011;27616;51.420;6.788;2023-04-29T04:02:47;27.80;;;11.57;;
41927;SDS011;27616;51.420;6.788;2023-04-29T04:05:14;28.93;;;11.67;;
41927;SDS011;27616;51.420;6.788;2023-04-29T04:07:44;30.27;;;11.10;;
41927;SDS011;27616;51.420;6.788;2023-04-29T04:10:29;30.40;;;11.97;;
41927;SDS011;27616;51.420;6.788;2023-04-29T04:12:56;29.50;;;11.13;;
41927;SDS011;27616;51.420;6.788;2023-04-29T04:15:22;28.13;;;11.13;;
41927;SDS011;27616;51.420;6.788;2023-04-29T04:17:47;27.33;;;11.63;;
41927;SDS011;27616;51.420;6.788;2023-04-29T04:20:13;28.60;;;11.00;;
41927;SDS011;27616;51.420;6.788;2023-04-29T04:22:40;28.33;;;10.43;;
41927;SDS011;27616;51.420;6.788;2023-04-29T04:25:14;28.37;;;10.07;;
41927;SDS011;27616;51.420;6.788;2023-04-29T04:27:40;28.53;;;10.70;;
41927;SDS011;27616;51.420;6.788;2023-04-29T04:30:11;29.13;;;11.77;;
41927;SDS011;27616;51.420;6.788;2023-04-29T04:32:37;25.23;;;10.13;;
41927;SDS011;27616;51.420;6.788;2023-04-29T04:35:04;28.37;;;11.27;;
41927;SDS011;27616;51.420;6.788;2023-04-29T04:37:31;28.93;;;10.97;;
41927;SDS011;27616;51.420;6.788;2023-04-29T04:39:58;28.30;;;11.63;;
41927;SDS011;27616;51.420;6.788;2023-04-29T04:42:24;32.53;;;12.97;;
41927;SDS011;27616;51.420;6.788;2023-04-29T04:44:54;30.33;;;11.47;;
41927;SDS011;27616;51.420;6.788;2023-04-29T04:47:44;30.33;;;11.60;;
41927;SDS011;27616;51.420;6.788;2023-04-29T04:50:20;25.67;;;11.13;;
41927;SDS011;27616;51.420;6.788;2023-04-29T04:52:47;28.23;;;11.27;;
41927;SDS011;27616;51.420;6.788;2023-04-29T04:55:29;29.87;;;11.30;;
41927;SDS011;27616;51.420;6.788;2023-04-29T04:57:58;30.83;;;12.35;;
41927;SDS011;27616;51.420;6.788;2023-04-29T05:00:24;29.20;;;11.87;;
41927;SDS011;27616;51.420;6.788;2023-04-29T05:02:50;27.83;;;10.80;;
41927;SDS011;27616;51.420;6.788;2023-04-29T05:05:16;30.23;;;11.50;;
41927;SDS011;27616;51.420;6.788;2023-04-29T05:07:42;33.43;;;12.57;;
41927;SDS011;27616;51.420;6.788;2023-04-29T05:10:08;27.63;;;11.47;;
41927;SDS011;27616;51.420;6.788;2023-04-29T05:12:42;26.60;;;11.67;;
41927;SDS011;27616;51.420;6.788;2023-04-29T05:15:08;26.13;;;11.13;;
41927;SDS011;27616;51.420;6.788;2023-04-29T05:17:35;24.60;;;11.23;;
41927;SDS011;27616;51.420;6.788;2023-04-29T05:20:01;28.30;;;10.23;;
41927;SDS011;27616;51.420;6.788;2023-04-29T05:22:28;25.37;;;11.27;;
41927;SDS011;27616;51.420;6.788;2023-04-29T05:24:55;26.80;;;10.73;;
41927;SDS011;27616;51.420;6.788;2023-04-29T05:27:26;25.07;;;10.93;;
41927;SDS011;27616;51.420;6.788;2023-04-29T05:29:53;22.83;;;10.67;;
41927;SDS011;27616;51.420;6.788;2023-04-29T05:32:19;22.93;;;9.80;;
41927;SDS011;27616;51.420;6.788;2023-04-29T05:34:45;25.67;;;10.90;;
41927;SDS011;27616;51.420;6.788;2023-04-29T05:37:10;26.23;;;10.90;;
41927;SDS011;27616;51.420;6.788;2023-04-29T05:39:51;27.10;;;10.43;;
41927;SDS011;27616;51.420;6.788;2023-04-29T05:42:17;23.07;;;10.60;;
41927;SDS011;27616;51.420;6.788;2023-04-29T05:44:47;21.83;;;10.30;;
41927;SDS011;27616;51.420;6.788;2023-04-29T05:47:13;28.17;;;10.60;;
41927;SDS011;27616;51.420;6.788;2023-04-29T05:49:39;22.33;;;10.23;;
41927;SDS011;27616;51.420;6.788;2023-04-29T05:52:05;23.03;;;10.53;;
41927;SDS011;27616;51.420;6.788;2023-04-29T05:54:36;23.90;;;11.40;;
41927;SDS011;27616;51.420;6.788;2023-04-29T05:57:02;24.33;;;10.50;;
41927;SDS011;27616;51.420;6.788;2023-04-29T05:59:28;24.30;;;10.67;;
41927;SDS011;27616;51.420;6.788;2023-04-29T06:01:55;24.67;;;11.43;;
41927;SDS011;27616;51.420;6.788;2023-04-29T06:04:22;21.00;;;10.37;;
41927;SDS011;27616;51.420;6.788;2023-04-29T06:07:08;23.07;;;10.80;;
41927;SDS011;27616;51.420;6.788;2023-04-29T06:09:59;24.93;;;11.40;;
41927;SDS011;27616;51.420;6.788;2023-04-29T06:12:26;25.07;;;10.77;;
41927;SDS011;27616;51.420;6.788;2023-04-29T06:14:52;21.97;;;9.57;;
41927;SDS011;27616;51.420;6.788;2023-04-29T06:17:19;20.43;;;10.27;;
41927;SDS011;27616;51.420;6.788;2023-04-29T06:19:44;26.67;;;11.17;;
41927;SDS011;27616;51.420;6.788;2023-04-29T06:22:10;22.60;;;10.20;;
41927;SDS011;27616;51.420;6.788;2023-04-29T06:24:40;21.27;;;10.10;;
41927;SDS011;27616;51.420;6.788;2023-04-29T06:27:07;22.93;;;10.47;;
41927;SDS011;27616;51.420;6.788;2023-04-29T06:29:33;19.87;;;9.67;;
41927;SDS011;27616;51.420;6.788;2023-04-29T06:31:58;19.10;;;8.73;;
41927;SDS011;27616;51.420;6.788;2023-04-29T06:34:24;20.83;;;9.17;;
41927;SDS011;27616;51.420;6.788;2023-04-29T06:37:09;20.53;;;9.00;;
41927;SDS011;27616;51.420;6.788;2023-04-29T06:40:04;18.40;;;9.57;;
41927;SDS011;27616;51.420;6.788;2023-04-29T06:42:40;21.47;;;9.30;;
41927;SDS011;27616;51.420;6.788;2023-04-29T06:45:46;18.90;;;9.03;;
41927;SDS011;27616;51.420;6.788;2023-04-29T06:48:30;21.50;;;9.57;;
41927;SDS011;27616;51.420;6.788;2023-04-29T06:50:56;21.83;;;9.57;;
41927;SDS011;27616;51.420;6.788;2023-04-29T06:53:23;24.20;;;11.80;;
41927;SDS011;27616;51.420;6.788;2023-04-29T06:55:49;20.27;;;9.57;;
41927;SDS011;27616;51.420;6.788;2023-04-29T06:58:15;20.00;;;10.37;;
41927;SDS011;27616;51.420;6.788;2023-04-29T07:00:45;23.03;;;10.50;;
41927;SDS011;27616;51.420;6.788;2023-04-29T07:03:13;21.33;;;9.63;;
41927;SDS011;27616;51.420;6.788;2023-04-29T07:05:39;23.83;;;10.87;;
41927;SDS011;27616;51.420;6.788;2023-04-29T07:08:07;24.43;;;10.40;;
41927;SDS011;27616;51.420;6.788;2023-04-29T07:10:34;23.40;;;10.03;;
41927;SDS011;27616;51.420;6.788;2023-04-29T07:13:00;20.97;;;9.93;;
41927;SDS011;27616;51.420;6.788;2023-04-29T07:15:26;19.63;;;10.13;;
41927;SDS011;27616;51.420;6.788;2023-04-29T07:17:54;24.23;;;10.80;;
41927;SDS011;27616;51.420;6.788;2023-04-29T07:20:20;20.60;;;9.93;;
41927;SDS011;27616;51.420;6.788;2023-04-29T07:22:46;21.70;;;9.77;;
41927;SDS011;27616;51.420;6.788;2023-04-29T07:25:12;19.80;;;9.93;;
41927;SDS011;27616;51.420;6.788;2023-04-29T07:27:38;26.77;;;10.73;;
41927;SDS011;27616;51.420;6.788;2023-04-29T07:30:04;16.63;;;9.40;;
41927;SDS011;27616;51.420;6.788;2023-04-29T07:32:31;21.07;;;9.97;;
41927;SDS011;27616;51.420;6.788;2023-04-29T07:35:00;21.57;;;10.33;;
41927;SDS011;27616;51.420;6.788;2023-04-29T07:37:26;27.80;;;11.17;;
41927;SDS011;27616;51.420;6.788;2023-04-29T07:39:52;22.60;;;10.33;;
41927;SDS011;27616;51.420;6.788;2023-04-29T07:42:17;22.40;;;10.47;;
41927;SDS011;27616;51.420;6.788;2023-04-29T07:44:44;22.77;;;10.47;;
41927;SDS011;27616;51.420;6.788;2023-04-29T07:47:10;22.23;;;10.60;;
41927;SDS011;27616;51.420;6.788;2023-04-29T07:49:37;23.13;;;11.30;;
41927;SDS011;27616;51.420;6.788;2023-04-29T07:52:06;28.60;;;13.30;;
41927;SDS011;27616;51.420;6.788;2023-04-29T07:54:34;23.27;;;13.00;;
41927;SDS011;27616;51.420;6.788;2023-04-29T07:57:01;28.43;;;13.73;;
41927;SDS011;27616;51.420;6.788;2023-04-29T07:59:29;27.40;;;12.60;;
41927;SDS011;27616;51.420;6.788;2023-04-29T08:01:55;31.43;;;15.23;;
41927;SDS011;27616;51.420;6.788;2023-04-29T08:04:21;29.73;;;13.80;;
41927;SDS011;27616;51.420;6.788;2023-04-29T08:06:54;26.43;;;13.63;;
41927;SDS011;27616;51.420;6.788;2023-04-29T08:09:20;29.53;;;13.90;;
41927;SDS011;27616;51.420;6.788;2023-04-29T08:11:46;27.03;;;12.17;;
41927;SDS011;27616;51.420;6.788;2023-04-29T08:14:12;26.53;;;12.53;;
41927;SDS011;27616;51.420;6.788;2023-04-29T08:16:37;31.40;;;13.77;;
41927;SDS011;27616;51.420;6.788;2023-04-29T08:19:03;30.03;;;13.17;;
41927;SDS011;27616;51.420;6.788;2023-04-29T08:21:29;30.80;;;13.63;;
41927;SDS011;27616;51.420;6.788;2023-04-29T08:23:56;25.00;;;12.80;;
41927;SDS011;27616;51.420;6.788;2023-04-29T08:26:22;24.30;;;11.83;;
41927;SDS011;27616;51.420;6.788;2023-04-29T08:28:48;30.30;;;12.47;;
41927;SDS011;27616;51.420;6.788;2023-04-29T08:31:19;28.50;;;13.33;;
41927;SDS011;27616;51.420;6.788;2023-04-29T08:33:45;25.83;;;12.83;;
41927;SDS011;27616;51.420;6.788;2023-04-29T08:36:12;25.13;;;11.07;;
41927;SDS011;27616;51.420;6.788;2023-04-29T08:38:37;23.90;;;11.67;;
41927;SDS011;27616;51.420;6.788;2023-04-29T08:41:06;22.33;;;10.70;;
41927;SDS011;27616;51.420;6.788;2023-04-29T08:43:33;20.40;;;10.20;;
41927;SDS011;27616;51.420;6.788;2023-04-29T08:46:01;23.40;;;11.00;;
41927;SDS011;27616;51.420;6.788;2023-04-29T08:48:29;26.40;;;10.97;;
41927;SDS011;27616;51.420;6.788;2023-04-29T08:50:55;28.33;;;13.10;;
41927;SDS011;27616;51.420;6.788;2023-04-29T08:53:22;26.57;;;12.37;;
41927;SDS011;27616;51.420;6.788;2023-04-29T08:55:49;24.90;;;11.20;;
41927;SDS011;27616;51.420;6.788;2023-04-29T08:58:15;22.73;;;11.97;;
41927;SDS011;27616;51.420;6.788;2023-04-29T09:00:41;24.70;;;12.53;;
41927;SDS011;27616;51.420;6.788;2023-04-29T09:03:13;26.53;;;11.47;;
41927;SDS011;27616;51.420;6.788;2023-04-29T09:05:42;23.50;;;12.70;;
41927;SDS011;27616;51.420;6.788;2023-04-29T09:08:10;25.83;;;12.27;;
41927;SDS011;27616;51.420;6.788;2023-04-29T09:10:37;27.30;;;12.20;;
41927;SDS011;27616;51.420;6.788;2023-04-29T09:13:06;27.73;;;12.55;;
41927;SDS011;27616;51.420;6.788;2023-04-29T09:15:35;25.07;;;12.07;;
41927;SDS011;27616;51.420;6.788;2023-04-29T09:18:02;27.00;;;11.37;;
41927;SDS011;27616;51.420;6.788;2023-04-29T09:20:28;24.37;;;11.30;;
41927;SDS011;27616;51.420;6.788;2023-04-29T09:22:55;25.10;;;10.73;;
41927;SDS011;27616;51.420;6.788;2023-04-29T09:25:21;23.90;;;11.17;;
41927;SDS011;27616;51.420;6.788;2023-04-29T09:27:47;27.40;;;11.13;;
41927;SDS011;27616;51.420;6.788;2023-04-29T09:30:13;26.13;;;11.27;;
41927;SDS011;27616;51.420;6.788;2023-04-29T09:32:40;24.73;;;11.70;;
41927;SDS011;27616;51.420;6.788;2023-04-29T09:37:49;23.33;;;10.77;;
41927;SDS011;27616;51.420;6.788;2023-04-29T09:43:13;24.93;;;11.33;;
41927;SDS011;27616;51.420;6.788;2023-04-29T09:45:44;22.23;;;11.17;;
41927;SDS011;27616;51.420;6.788;2023-04-29T09:48:11;25.67;;;11.90;;
41927;SDS011;27616;51.420;6.788;2023-04-29T09:50:38;22.33;;;10.80;;
41927;SDS011;27616;51.420;6.788;2023-04-29T09:53:06;22.87;;;11.03;;
41927;SDS011;27616;51.420;6.788;2023-04-29T09:55:56;25.43;;;10.97;;
41927;SDS011;27616;51.420;6.788;2023-04-29T09:58:27;25.40;;;11.53;;
41927;SDS011;27616;51.420;6.788;2023-04-29T10:00:56;22.33;;;11.40;;
41927;SDS011;27616;51.420;6.788;2023-04-29T10:03:25;21.37;;;11.27;;
41927;SDS011;27616;51.420;6.788;2023-04-29T10:05:57;23.13;;;11.27;;
41927;SDS011;27616;51.420;6.788;2023-04-29T10:08:24;22.70;;;11.73;;
41927;SDS011;27616;51.420;6.788;2023-04-29T10:10:51;21.38;;;10.98;;
41927;SDS011;27616;51.420;6.788;2023-04-29T10:13:24;20.10;;;9.70;;
41927;SDS011;27616;51.420;6.788;2023-04-29T10:15:55;23.05;;;10.55;;
41927;SDS011;27616;51.420;6.788;2023-04-29T10:18:27;21.33;;;10.93;;
41927;SDS011;27616;51.420;6.788;2023-04-29T10:21:00;24.45;;;10.82;;
41927;SDS011;27616;51.420;6.788;2023-04-29T10:23:27;20.30;;;10.25;;
41927;SDS011;27616;51.420;6.788;2023-04-29T10:25:55;23.02;;;11.48;;
41927;SDS011;27616;51.420;6.788;2023-04-29T10:28:23;21.70;;;11.07;;
41927;SDS011;27616;51.420;6.788;2023-04-29T10:30:50;20.30;;;11.15;;
41927;SDS011;27616;51.420;6.788;2023-04-29T10:33:17;19.88;;;10.55;;
41927;SDS011;27616;51.420;6.788;2023-04-29T10:35:43;22.13;;;11.02;;
41927;SDS011;27616;51.420;6.788;2023-04-29T10:38:12;17.67;;;10.13;;
41927;SDS011;27616;51.420;6.788;2023-04-29T10:40:52;18.60;;;10.45;;
41927;SDS011;27616;51.420;6.788;2023-04-29T10:43:24;17.80;;;9.98;;
41927;SDS011;27616;51.420;6.788;2023-04-29T10:48:42;19.80;;;10.80;;
41927;SDS011;27616;51.420;6.788;2023-04-29T10:51:08;19.50;;;10.75;;
41927;SDS011;27616;51.420;6.788;2023-04-29T10:53:33;19.80;;;10.68;;
41927;SDS011;27616;51.420;6.788;2023-04-29T10:56:03;21.02;;;10.48;;
41927;SDS011;27616;51.420;6.788;2023-04-29T10:58:33;18.40;;;10.60;;
41927;SDS011;27616;51.420;6.788;2023-04-29T11:01:05;22.15;;;10.80;;
41927;SDS011;27616;51.420;6.788;2023-04-29T11:03:54;17.77;;;9.88;;
41927;SDS011;27616;51.420;6.788;2023-04-29T11:06:37;18.20;;;10.15;;
41927;SDS011;27616;51.420;6.788;2023-04-29T11:09:13;21.13;;;9.85;;
41927;SDS011;27616;51.420;6.788;2023-04-29T11:14:22;17.30;;;10.00;;
41927;SDS011;27616;51.420;6.788;2023-04-29T11:16:53;18.83;;;10.38;;
41927;SDS011;27616;51.420;6.788;2023-04-29T11:19:22;17.15;;;9.57;;
41927;SDS011;27616;51.420;6.788;2023-04-29T11:21:53;14.95;;;9.20;;
41927;SDS011;27616;51.420;6.788;2023-04-29T11:24:36;18.10;;;10.30;;
41927;SDS011;27616;51.420;6.788;2023-04-29T11:27:12;17.88;;;10.23;;
41927;SDS011;27616;51.420;6.788;2023-04-29T11:29:40;19.13;;;10.57;;
41927;SDS011;27616;51.420;6.788;2023-04-29T11:32:06;15.75;;;9.77;;
41927;SDS011;27616;51.420;6.788;2023-04-29T11:34:32;15.95;;;9.50;;
41927;SDS011;27616;51.420;6.788;2023-04-29T11:36:58;16.58;;;9.90;;
41927;SDS011;27616;51.420;6.788;2023-04-29T11:39:25;18.63;;;9.98;;
41927;SDS011;27616;51.420;6.788;2023-04-29T11:41:51;18.25;;;9.88;;
41927;SDS011;27616;51.420;6.788;2023-04-29T11:44:27;16.92;;;9.20;;
41927;SDS011;27616;51.420;6.788;2023-04-29T11:46:52;17.15;;;8.98;;
41927;SDS011;27616;51.420;6.788;2023-04-29T11:49:31;15.95;;;9.73;;
41927;SDS011;27616;51.420;6.788;2023-04-29T11:52:02;16.23;;;9.23;;
41927;SDS011;27616;51.420;6.788;2023-04-29T11:54:28;18.60;;;10.07;;
41927;SDS011;27616;51.420;6.788;2023-04-29T11:56:55;18.00;;;10.02;;
41927;SDS011;27616;51.420;6.788;2023-04-29T11:59:22;15.20;;;8.90;;
41927;SDS011;27616;51.420;6.788;2023-04-29T12:01:51;16.02;;;7.95;;
41927;SDS011;27616;51.420;6.788;2023-04-29T12:04:17;14.25;;;8.82;;
41927;SDS011;27616;51.420;6.788;2023-04-29T12:06:45;12.10;;;8.13;;
41927;SDS011;27616;51.420;6.788;2023-04-29T12:09:16;13.93;;;8.68;;
41927;SDS011;27616;51.420;6.788;2023-04-29T12:11:43;15.80;;;8.13;;
41927;SDS011;27616;51.420;6.788;2023-04-29T12:14:09;13.10;;;8.00;;
41927;SDS011;27616;51.420;6.788;2023-04-29T12:16:35;14.15;;;8.05;;
41927;SDS011;27616;51.420;6.788;2023-04-29T12:19:01;13.07;;;7.55;;
41927;SDS011;27616;51.420;6.788;2023-04-29T12:21:27;12.30;;;6.82;;
41927;SDS011;27616;51.420;6.788;2023-04-29T12:23:53;13.57;;;6.85;;
41927;SDS011;27616;51.420;6.788;2023-04-29T12:26:18;13.18;;;7.53;;
41927;SDS011;27616;51.420;6.788;2023-04-29T12:28:47;12.23;;;8.02;;
41927;SDS011;27616;51.420;6.788;2023-04-29T12:31:17;11.90;;;7.43;;
41927;SDS011;27616;51.420;6.788;2023-04-29T12:33:43;13.55;;;7.80;;
41927;SDS011;27616;51.420;6.788;2023-04-29T12:36:16;18.10;;;7.97;;
41927;SDS011;27616;51.420;6.788;2023-04-29T12:38:43;14.30;;;8.02;;
41927;SDS011;27616;51.420;6.788;2023-04-29T12:41:09;11.50;;;7.10;;
41927;SDS011;27616;51.420;6.788;2023-04-29T12:43:37;10.43;;;7.18;;
41927;SDS011;27616;51.420;6.788;2023-04-29T12:46:04;13.20;;;7.38;;
41927;SDS011;27616;51.420;6.788;2023-04-29T12:48:31;9.68;;;5.82;;
41927;SDS011;27616;51.420;6.788;2023-04-29T12:50:58;9.18;;;5.70;;
41927;SDS011;27616;51.420;6.788;2023-04-29T12:53:25;10.30;;;5.50;;
41927;SDS011;27616;51.420;6.788;2023-04-29T12:55:53;9.95;;;5.47;;
41927;SDS011;27616;51.420;6.788;2023-04-29T12:58:19;11.93;;;6.03;;
41927;SDS011;27616;51.420;6.788;2023-04-29T13:00:44;9.80;;;6.18;;
41927;SDS011;27616;51.420;6.788;2023-04-29T13:03:10;11.05;;;5.43;;
41927;SDS011;27616;51.420;6.788;2023-04-29T13:05:36;7.63;;;4.85;;
41927;SDS011;27616;51.420;6.788;2023-04-29T13:08:02;11.50;;;6.10;;
41927;SDS011;27616;51.420;6.788;2023-04-29T13:10:30;10.53;;;6.30;;
41927;SDS011;27616;51.420;6.788;2023-04-29T13:12:55;11.68;;;5.20;;
41927;SDS011;27616;51.420;6.788;2023-04-29T13:15:21;8.73;;;5.47;;
41927;SDS011;27616;51.420;6.788;2023-04-29T13:17:47;9.15;;;5.35;;
41927;SDS011;27616;51.420;6.788;2023-04-29T13:20:13;13.05;;;6.30;;
41927;SDS011;27616;51.420;6.788;2023-04-29T13:22:39;9.82;;;5.85;;
41927;SDS011;27616;51.420;6.788;2023-04-29T13:25:07;9.13;;;5.53;;
41927;SDS011;27616;51.420;6.788;2023-04-29T13:27:34;8.27;;;5.10;;
41927;SDS011;27616;51.420;6.788;2023-04-29T13:30:00;9.30;;;5.55;;
41927;SDS011;27616;51.420;6.788;2023-04-29T13:32:26;9.95;;;5.38;;
41927;SDS011;27616;51.420;6.788;2023-04-29T13:34:52;9.82;;;5.95;;
41927;SDS011;27616;51.420;6.788;2023-04-29T13:37:17;10.80;;;5.55;;
41927;SDS011;27616;51.420;6.788;2023-04-29T13:39:46;7.93;;;5.20;;
41927;SDS011;27616;51.420;6.788;2023-04-29T13:42:12;10.23;;;5.32;;
41927;SDS011;27616;51.420;6.788;2023-04-29T13:44:37;7.63;;;4.78;;
41927;SDS011;27616;51.420;6.788;2023-04-29T13:47:08;11.57;;;5.55;;
41927;SDS011;27616;51.420;6.788;2023-04-29T13:49:43;9.02;;;5.13;;
41927;SDS011;27616;51.420;6.788;2023-04-29T13:52:11;9.52;;;5.57;;
41927;SDS011;27616;51.420;6.788;2023-04-29T13:54:37;8.50;;;5.07;;
41927;SDS011;27616;51.420;6.788;2023-04-29T13:57:03;11.52;;;5.13;;
41927;SDS011;27616;51.420;6.788;2023-04-29T13:59:33;10.65;;;5.13;;
41927;SDS011;27616;51.420;6.788;2023-04-29T14:01:59;9.52;;;5.25;;
41927;SDS011;27616;51.420;6.788;2023-04-29T14:04:26;9.63;;;4.88;;
41927;SDS011;27616;51.420;6.788;2023-04-29T14:06:53;7.32;;;5.10;;
41927;SDS011;27616;51.420;6.788;2023-04-29T14:09:19;7.63;;;4.70;;
41927;SDS011;27616;51.420;6.788;2023-04-29T14:11:46;9.70;;;5.35;;
41927;SDS011;27616;51.420;6.788;2023-04-29T14:14:12;7.97;;;4.57;;
41927;SDS011;27616;51.420;6.788;2023-04-29T14:16:38;9.48;;;5.40;;
41927;SDS011;27616;51.420;6.788;2023-04-29T14:19:05;7.30;;;4.63;;
41927;SDS011;27616;51.420;6.788;2023-04-29T14:21:31;8.90;;;4.85;;
41927;SDS011;27616;51.420;6.788;2023-04-29T14:24:00;7.03;;;3.97;;
41927;SDS011;27616;51.420;6.788;2023-04-29T14:26:27;7.32;;;4.25;;
41927;SDS011;27616;51.420;6.788;2023-04-29T14:28:54;8.23;;;4.07;;
41927;SDS011;27616;51.420;6.788;2023-04-29T14:31:27;8.45;;;4.18;;
41927;SDS011;27616;51.420;6.788;2023-04-29T14:33:57;7.75;;;4.07;;
41927;SDS011;27616;51.420;6.788;2023-04-29T14:36:23;6.18;;;3.80;;
41927;SDS011;27616;51.420;6.788;2023-04-29T14:38:49;7.03;;;4.05;;
41927;SDS011;27616;51.420;6.788;2023-04-29T14:41:15;6.28;;;3.70;;
41927;SDS011;27616;51.420;6.788;2023-04-29T14:43:41;6.20;;;3.78;;
41927;SDS011;27616;51.420;6.788;2023-04-29T14:46:08;7.88;;;3.70;;
41927;SDS011;27616;51.420;6.788;2023-04-29T14:48:34;5.78;;;3.85;;
41927;SDS011;27616;51.420;6.788;2023-04-29T14:51:00;7.65;;;3.92;;
41927;SDS011;27616;51.420;6.788;2023-04-29T14:53:26;8.50;;;4.70;;
41927;SDS011;27616;51.420;6.788;2023-04-29T14:55:51;9.48;;;5.28;;
41927;SDS011;27616;51.420;6.788;2023-04-29T14:58:17;10.48;;;5.47;;
41927;SDS011;27616;51.420;6.788;2023-04-29T15:00:43;11.27;;;5.53;;